Time;durP1;ratioP1;P1;durP2;ratioP2;P2;SDS_P1;SDS_P2;PMS_P1;PMS_P2;Temp;Humidity;BMP_temperature;BMP_pressure;BME280_temperature;BME280_humidity;BME280_pressure;Samples;Min_cycle;Max_cycle;Signal;HPM_P1;HPM_P2
2021/10/13 00:00:21;;;;;;;4.78;2.60;;;12.60;76.10;;;;;;5058637;28;20028;-74
2021/10/13 00:02:47;;;;;;;5.22;3.08;;;12.60;76.10;;;;;;5070331;28;20089;-74
2021/10/13 00:05:12;;;;;;;4.55;2.80;;;12.70;76.20;;;;;;5071301;28;20033;-74
2021/10/13 00:07:38;;;;;;;5.57;3.10;;;12.60;76.20;;;;;;5070912;28;20116;-74
2021/10/13 00:10:05;;;;;;;5.78;2.92;;;12.60;76.60;;;;;;5068057;28;20064;-74
2021/10/13 00:12:34;;;;;;;6.13;2.75;;;12.70;76.20;;;;;;5071360;28;20021;-74
2021/10/13 00:15:08;;;;;;;6.72;3.10;;;12.60;75.90;;;;;;5071564;28;20033;-74
2021/10/13 00:17:34;;;;;;;4.70;2.63;;;12.50;76.00;;;;;;5070740;28;20029;-74
2021/10/13 00:20:02;;;;;;;6.70;2.95;;;12.50;76.20;;;;;;5070895;28;20558;-74
2021/10/13 00:22:28;;;;;;;5.68;3.10;;;12.50;76.60;;;;;;5071266;28;20028;-74
2021/10/13 00:24:53;;;;;;;5.75;2.50;;;12.50;76.40;;;;;;5071747;28;20438;-74
2021/10/13 00:27:19;;;;;;;4.90;2.58;;;12.50;76.50;;;;;;5067793;28;20647;-74
2021/10/13 00:29:45;;;;;;;5.95;2.67;;;12.40;76.30;;;;;;5071515;28;20033;-74
2021/10/13 00:32:10;;;;;;;5.00;2.72;;;12.40;76.60;;;;;;5071398;28;20048;-74
2021/10/13 00:34:36;;;;;;;7.18;3.00;;;12.40;76.90;;;;;;5072053;28;20481;-74
2021/10/13 00:37:02;;;;;;;6.15;2.65;;;12.40;76.40;;;;;;5077647;28;20024;-75
2021/10/13 00:39:28;;;;;;;6.60;2.90;;;12.40;76.70;;;;;;5080938;28;20501;-75
2021/10/13 00:41:54;;;;;;;4.85;2.60;;;12.40;76.70;;;;;;5072588;28;20024;-75
2021/10/13 00:44:20;;;;;;;5.75;2.38;;;12.40;76.80;;;;;;5085980;28;20048;-74
2021/10/13 00:46:45;;;;;;;5.15;2.30;;;12.50;76.90;;;;;;5082328;28;20029;-75
2021/10/13 00:49:11;;;;;;;3.92;2.45;;;12.50;76.90;;;;;;5082192;28;20029;-75
2021/10/13 00:51:37;;;;;;;4.70;2.60;;;12.60;76.90;;;;;;5088866;28;20029;-75
2021/10/13 00:54:02;;;;;;;7.07;2.42;;;12.60;76.70;;;;;;5087817;28;20064;-74
2021/10/13 00:56:28;;;;;;;5.38;2.53;;;12.60;77.10;;;;;;5073886;28;20400;-74
2021/10/13 00:58:54;;;;;;;5.70;2.90;;;12.70;76.80;;;;;;5087202;28;20025;-75
2021/10/13 01:01:25;;;;;;;4.85;2.60;;;12.70;76.50;;;;;;5058127;28;20024;-74
2021/10/13 01:04:17;;;;;;;4.13;2.53;;;12.60;76.40;;;;;;5075225;28;20036;-74
2021/10/13 01:07:03;;;;;;;6.90;3.17;;;12.60;76.40;;;;;;5073732;28;20137;-73
2021/10/13 01:09:54;;;;;;;5.95;2.60;;;12.70;76.80;;;;;;5072021;28;20039;-74
2021/10/13 01:12:26;;;;;;;6.25;2.60;;;12.70;76.10;;;;;;5063815;28;20059;-74
2021/10/13 01:15:02;;;;;;;4.90;2.72;;;12.60;76.80;;;;;;5074673;28;20033;-75
2021/10/13 01:17:43;;;;;;;8.63;2.95;;;12.70;77.00;;;;;;5074382;28;20086;-74
2021/10/13 01:20:39;;;;;;;7.05;2.80;;;12.70;76.70;;;;;;5074565;28;20116;-73
2021/10/13 01:23:26;;;;;;;6.43;2.42;;;12.70;76.70;;;;;;5074508;28;20031;-75
2021/10/13 01:26:08;;;;;;;5.05;2.67;;;12.70;76.60;;;;;;5074419;28;20479;-75
2021/10/13 01:28:36;;;;;;;11.05;3.75;;;12.70;77.00;;;;;;5058616;28;20036;-76
2021/10/13 01:31:13;;;;;;;4.97;2.67;;;12.60;77.20;;;;;;5074183;28;20431;-75
2021/10/13 01:33:46;;;;;;;4.72;2.70;;;12.70;77.80;;;;;;5074502;28;20040;-76
2021/10/13 01:36:14;;;;;;;4.65;2.55;;;12.70;77.40;;;;;;5075002;28;20123;-75
2021/10/13 01:38:49;;;;;;;5.78;2.83;;;12.70;77.60;;;;;;5073979;28;20079;-75
2021/10/13 01:41:17;;;;;;;4.68;2.63;;;12.70;77.10;;;;;;5074049;28;20028;-75
2021/10/13 01:43:46;;;;;;;4.72;2.97;;;12.70;77.30;;;;;;5058359;28;20573;-75
2021/10/13 01:46:14;;;;;;;4.70;2.65;;;12.70;77.60;;;;;;5068087;28;20484;-76
2021/10/13 01:48:41;;;;;;;4.25;2.78;;;12.70;77.80;;;;;;5073452;28;20086;-75
2021/10/13 01:51:07;;;;;;;4.82;2.80;;;12.70;78.00;;;;;;5074333;28;20025;-75
2021/10/13 01:53:34;;;;;;;5.55;2.80;;;12.70;77.50;;;;;;5063184;28;20048;-75
2021/10/13 01:56:01;;;;;;;5.70;2.83;;;12.70;77.50;;;;;;5067336;28;20036;-75
2021/10/13 01:58:29;;;;;;;5.90;3.30;;;12.60;77.50;;;;;;5073600;28;20056;-73
2021/10/13 02:00:57;;;;;;;6.63;3.05;;;12.70;78.10;;;;;;5072299;28;20139;-75
2021/10/13 02:03:25;;;;;;;6.03;3.03;;;12.60;77.60;;;;;;5074465;28;20477;-75
2021/10/13 02:05:55;;;;;;;8.60;3.00;;;12.60;77.60;;;;;;5070035;28;20103;-75
2021/10/13 02:08:22;;;;;;;6.45;3.00;;;12.60;77.90;;;;;;5072710;28;20064;-75
2021/10/13 02:10:49;;;;;;;5.63;2.90;;;12.50;77.80;;;;;;5072832;28;20048;-75
2021/10/13 02:13:17;;;;;;;4.90;2.67;;;12.60;77.70;;;;;;5071102;28;20051;-75
2021/10/13 02:15:45;;;;;;;5.65;2.83;;;12.50;77.80;;;;;;5073522;28;20120;-74
2021/10/13 02:18:20;;;;;;;5.10;2.58;;;12.50;77.70;;;;;;5074165;28;20066;-74
2021/10/13 02:20:47;;;;;;;6.32;3.17;;;12.40;77.70;;;;;;5058541;28;20036;-73
2021/10/13 02:23:15;;;;;;;7.30;2.67;;;12.40;77.80;;;;;;5073437;28;20036;-75
2021/10/13 02:25:46;;;;;;;4.35;2.63;;;12.40;78.20;;;;;;5072913;28;20028;-75
2021/10/13 02:28:16;;;;;;;4.82;2.83;;;12.30;77.60;;;;;;5073106;28;20028;-75
2021/10/13 02:30:43;;;;;;;6.57;2.95;;;12.30;77.80;;;;;;5073345;28;20098;-75
2021/10/13 02:33:09;;;;;;;5.45;2.75;;;12.30;78.10;;;;;;5073589;28;20032;-75
2021/10/13 02:35:35;;;;;;;7.53;2.67;;;12.20;77.90;;;;;;5072975;28;20031;-75
2021/10/13 02:38:00;;;;;;;6.93;3.03;;;12.20;77.80;;;;;;5073154;28;20378;-75
2021/10/13 02:40:26;;;;;;;5.25;2.72;;;12.20;78.10;;;;;;5072771;28;20036;-75
2021/10/13 02:42:52;;;;;;;6.80;3.08;;;12.20;78.50;;;;;;5072757;28;20028;-75
2021/10/13 02:45:19;;;;;;;5.60;3.08;;;12.20;78.20;;;;;;5073444;28;20063;-75
2021/10/13 02:47:58;;;;;;;6.68;3.05;;;12.30;78.40;;;;;;5059316;28;20385;-75
2021/10/13 02:50:32;;;;;;;4.95;2.67;;;12.20;77.90;;;;;;5072711;28;20040;-75
2021/10/13 02:53:19;;;;;;;7.18;3.17;;;12.20;77.70;;;;;;5072623;28;20040;-75
2021/10/13 02:55:56;;;;;;;6.40;2.85;;;12.20;78.00;;;;;;5064182;28;20086;-75
2021/10/13 02:58:28;;;;;;;5.63;3.05;;;12.20;78.20;;;;;;5072370;28;20024;-75
2021/10/13 03:00:55;;;;;;;6.88;3.15;;;12.20;78.90;;;;;;5057065;28;20036;-75
2021/10/13 03:03:30;;;;;;;5.60;2.70;;;12.20;78.30;;;;;;5073067;28;20096;-75
2021/10/13 03:06:00;;;;;;;4.93;2.78;;;12.20;78.10;;;;;;5072227;28;20058;-75
2021/10/13 03:08:26;;;;;;;4.85;2.83;;;12.10;78.00;;;;;;5072387;28;20516;-75
2021/10/13 03:10:55;;;;;;;5.13;2.60;;;12.10;78.40;;;;;;5072321;28;20017;-75
2021/10/13 03:13:27;;;;;;;3.78;2.50;;;12.10;78.20;;;;;;5071816;28;20144;-75
2021/10/13 03:15:53;;;;;;;7.75;2.80;;;12.00;78.10;;;;;;5056903;28;20032;-75
2021/10/13 03:18:21;;;;;;;4.45;2.60;;;12.00;78.10;;;;;;5068831;28;20020;-75
2021/10/13 03:20:50;;;;;;;4.38;2.70;;;11.90;78.20;;;;;;5072225;28;20106;-75
2021/10/13 03:23:17;;;;;;;5.80;2.92;;;11.90;78.40;;;;;;5071812;28;20025;-75
2021/10/13 03:25:44;;;;;;;7.32;3.10;;;11.90;78.30;;;;;;5057387;28;20020;-75
2021/10/13 03:28:09;;;;;;;6.40;2.90;;;11.80;78.50;;;;;;5072182;28;20033;-75
2021/10/13 03:30:35;;;;;;;4.88;3.00;;;11.80;78.60;;;;;;5072251;28;20073;-73
2021/10/13 03:33:01;;;;;;;5.35;2.88;;;11.80;78.80;;;;;;5072371;28;20036;-75
2021/10/13 03:35:32;;;;;;;4.88;2.42;;;11.80;78.50;;;;;;5071947;28;20029;-73
2021/10/13 03:38:01;;;;;;;3.90;2.63;;;11.80;78.60;;;;;;5071820;28;20016;-75
2021/10/13 03:40:27;;;;;;;4.93;2.58;;;11.80;79.00;;;;;;5071372;28;20488;-73
2021/10/13 03:42:53;;;;;;;5.60;2.80;;;11.80;79.00;;;;;;5072028;28;20074;-73
2021/10/13 03:45:20;;;;;;;5.30;2.83;;;11.90;78.70;;;;;;5072494;28;20389;-73
2021/10/13 03:47:47;;;;;;;4.80;2.55;;;11.80;78.50;;;;;;5071910;28;20025;-74
2021/10/13 03:50:14;;;;;;;4.45;2.58;;;11.80;78.60;;;;;;5071713;28;20059;-75
2021/10/13 03:52:41;;;;;;;7.22;2.38;;;11.80;78.40;;;;;;5071678;28;20102;-75
2021/10/13 03:55:09;;;;;;;3.45;2.17;;;11.70;78.50;;;;;;5071530;28;20040;-75
2021/10/13 03:57:34;;;;;;;4.80;2.60;;;11.70;78.50;;;;;;5071691;28;20036;-75
2021/10/13 04:00:00;;;;;;;4.35;2.67;;;11.70;78.70;;;;;;5072290;28;20111;-75
2021/10/13 04:02:26;;;;;;;6.78;2.85;;;11.70;78.50;;;;;;5071654;28;20055;-75
2021/10/13 04:04:52;;;;;;;5.97;2.53;;;11.70;78.50;;;;;;5071699;28;20052;-75
2021/10/13 04:07:17;;;;;;;5.90;2.90;;;11.60;78.50;;;;;;5053508;28;20056;-75
2021/10/13 04:09:43;;;;;;;5.22;2.75;;;11.60;78.70;;;;;;5071171;28;20047;-75
2021/10/13 04:12:08;;;;;;;6.10;2.42;;;11.60;79.00;;;;;;5078454;28;20025;-75
2021/10/13 04:14:34;;;;;;;5.53;2.53;;;11.60;78.60;;;;;;5073240;28;20075;-75
2021/10/13 04:17:00;;;;;;;6.95;2.75;;;11.60;78.70;;;;;;5071580;28;20107;-76
2021/10/13 04:19:25;;;;;;;4.38;2.85;;;11.50;78.60;;;;;;5071368;28;20488;-75
2021/10/13 04:21:51;;;;;;;5.50;2.83;;;11.50;78.90;;;;;;5071510;28;20028;-75
2021/10/13 04:24:17;;;;;;;4.15;2.92;;;11.50;79.20;;;;;;5072749;28;20024;-75
2021/10/13 04:26:43;;;;;;;3.80;2.65;;;11.50;79.00;;;;;;5075172;28;20031;-75
2021/10/13 04:29:08;;;;;;;4.50;2.80;;;11.50;79.20;;;;;;5075534;28;20033;-75
2021/10/13 04:31:34;;;;;;;5.20;2.75;;;11.50;79.00;;;;;;5075485;28;20021;-75
2021/10/13 04:34:00;;;;;;;6.47;2.67;;;11.40;78.80;;;;;;5075416;28;20456;-75
2021/10/13 04:36:25;;;;;;;4.88;2.67;;;11.40;78.70;;;;;;5075729;28;20657;-74
2021/10/13 04:38:51;;;;;;;5.00;2.97;;;11.30;78.90;;;;;;5075126;28;20412;-75
2021/10/13 04:41:17;;;;;;;4.47;2.80;;;11.30;79.50;;;;;;5075300;28;20031;-75
2021/10/13 04:43:42;;;;;;;6.63;3.00;;;11.20;79.60;;;;;;5075345;28;20444;-75
2021/10/13 04:46:08;;;;;;;5.18;2.80;;;11.20;79.50;;;;;;5075199;28;20401;-75
2021/10/13 04:48:33;;;;;;;4.90;2.50;;;11.30;79.70;;;;;;5075428;28;20049;-75
2021/10/13 04:50:59;;;;;;;6.22;2.78;;;11.30;79.50;;;;;;5075607;28;20099;-75
2021/10/13 04:53:25;;;;;;;4.90;2.80;;;11.30;79.10;;;;;;5074560;28;20044;-74
2021/10/13 04:55:51;;;;;;;6.20;2.85;;;11.30;79.30;;;;;;5075199;28;20425;-75
2021/10/13 04:58:16;;;;;;;4.82;2.83;;;11.30;79.10;;;;;;5075036;28;20460;-74
2021/10/13 05:00:42;;;;;;;5.47;2.70;;;11.30;79.00;;;;;;5074934;28;20039;-74
2021/10/13 05:03:07;;;;;;;5.43;2.47;;;11.30;79.20;;;;;;5075563;28;20058;-74
2021/10/13 05:05:33;;;;;;;5.07;2.90;;;11.20;78.80;;;;;;5074773;28;20029;-74
2021/10/13 05:07:59;;;;;;;4.45;2.45;;;11.20;78.80;;;;;;5074525;28;20020;-74
2021/10/13 05:10:24;;;;;;;3.38;2.22;;;11.20;78.70;;;;;;5074548;28;20482;-74
2021/10/13 05:12:50;;;;;;;5.50;2.72;;;11.10;79.00;;;;;;5074643;28;20032;-74
2021/10/13 05:15:16;;;;;;;4.40;2.53;;;11.10;78.80;;;;;;5075268;28;20501;-74
2021/10/13 05:17:41;;;;;;;4.40;2.60;;;11.10;79.20;;;;;;5074157;28;20029;-74
2021/10/13 05:20:08;;;;;;;5.70;2.80;;;11.10;79.10;;;;;;5074478;28;20028;-75
2021/10/13 05:22:34;;;;;;;4.95;2.40;;;11.10;79.10;;;;;;5074012;28;20021;-74
2021/10/13 05:24:59;;;;;;;3.67;2.70;;;11.00;79.10;;;;;;5074157;28;20046;-74
2021/10/13 05:27:25;;;;;;;5.10;2.60;;;11.10;79.10;;;;;;5074859;28;20021;-75
2021/10/13 05:29:51;;;;;;;5.05;2.63;;;11.10;79.30;;;;;;5073951;28;20573;-75
2021/10/13 05:32:16;;;;;;;3.78;2.50;;;11.00;79.00;;;;;;5074097;28;20032;-76
2021/10/13 05:34:42;;;;;;;7.40;2.65;;;11.00;79.20;;;;;;5073987;28;20139;-74
2021/10/13 05:37:08;;;;;;;4.63;2.50;;;11.00;79.20;;;;;;5073868;28;20583;-73
2021/10/13 05:39:34;;;;;;;4.03;2.53;;;11.00;78.90;;;;;;5073512;28;20572;-73
2021/10/13 05:41:59;;;;;;;7.57;3.05;;;11.00;79.30;;;;;;5073982;28;20035;-73
2021/10/13 05:44:25;;;;;;;4.15;2.63;;;11.00;79.20;;;;;;5072594;28;20035;-73
2021/10/13 05:46:52;;;;;;;4.45;2.45;;;11.00;79.30;;;;;;5073902;28;20091;-73
2021/10/13 05:49:18;;;;;;;4.90;2.45;;;11.00;79.20;;;;;;5073997;28;20021;-73
2021/10/13 05:51:43;;;;;;;4.05;2.30;;;11.00;79.40;;;;;;5073734;28;20059;-73
2021/10/13 05:54:09;;;;;;;4.60;2.60;;;11.00;79.50;;;;;;5073475;28;20068;-75
2021/10/13 05:56:35;;;;;;;4.25;2.63;;;11.00;79.60;;;;;;5075699;28;20032;-69
2021/10/13 05:59:01;;;;;;;6.55;2.90;;;11.00;79.60;;;;;;5073383;28;20029;-68
2021/10/13 06:01:26;;;;;;;4.65;2.95;;;10.90;79.30;;;;;;5055977;28;20542;-68
2021/10/13 06:03:52;;;;;;;5.30;2.70;;;10.90;79.40;;;;;;5073495;28;20024;-68
2021/10/13 06:06:18;;;;;;;8.00;2.88;;;10.80;79.50;;;;;;5073266;28;20025;-68
2021/10/13 06:08:44;;;;;;;7.10;3.08;;;10.90;79.80;;;;;;5073003;28;20028;-70
2021/10/13 06:11:10;;;;;;;3.72;2.70;;;10.90;79.80;;;;;;5073661;28;20028;-71
2021/10/13 06:13:36;;;;;;;6.55;3.47;;;10.90;80.00;;;;;;5071952;28;20043;-78
2021/10/13 06:16:03;;;;;;;6.05;3.25;;;11.00;80.30;;;;;;5072539;28;20020;-75
2021/10/13 06:18:29;;;;;;;5.35;3.03;;;11.10;80.40;;;;;;5072615;28;20032;-72
2021/10/13 06:20:54;;;;;;;4.82;3.08;;;11.10;80.40;;;;;;5072910;28;20040;-71
2021/10/13 06:23:20;;;;;;;5.00;3.58;;;11.20;80.80;;;;;;5072748;28;20059;-71
2021/10/13 06:25:46;;;;;;;6.57;3.40;;;11.40;80.20;;;;;;5072727;28;20033;-71
2021/10/13 06:28:11;;;;;;;5.85;3.20;;;11.30;79.80;;;;;;5072731;28;20107;-70
2021/10/13 06:30:42;;;;;;;8.00;3.33;;;11.30;79.40;;;;;;5071931;28;20024;-70
2021/10/13 06:33:08;;;;;;;6.35;3.05;;;11.20;79.40;;;;;;5071723;28;20493;-71
2021/10/13 06:35:34;;;;;;;5.10;3.08;;;11.20;79.60;;;;;;5072256;28;20028;-71
2021/10/13 06:37:59;;;;;;;6.57;3.15;;;11.10;81.00;;;;;;5055724;28;20489;-71
2021/10/13 06:40:25;;;;;;;6.95;3.13;;;11.10;80.00;;;;;;5072114;28;20181;-71
2021/10/13 06:42:51;;;;;;;4.78;3.28;;;11.10;79.80;;;;;;5069813;28;20042;-71
2021/10/13 06:45:17;;;;;;;6.88;3.38;;;11.10;80.00;;;;;;5084997;28;20024;-69
2021/10/13 06:47:42;;;;;;;6.47;3.30;;;11.10;80.00;;;;;;5070982;28;20035;-70
2021/10/13 06:50:09;;;;;;;6.43;2.95;;;11.10;80.30;;;;;;5069752;28;20024;-71
2021/10/13 06:52:37;;;;;;;4.47;3.03;;;11.20;80.50;;;;;;5063930;28;20039;-70
2021/10/13 06:55:03;;;;;;;6.28;3.30;;;11.20;81.10;;;;;;5072195;28;20542;-71
2021/10/13 06:57:29;;;;;;;5.88;2.97;;;11.20;80.00;;;;;;5073000;28;20070;-70
2021/10/13 06:59:55;;;;;;;8.55;3.60;;;11.20;80.80;;;;;;5071787;28;20036;-70
2021/10/13 07:02:20;;;;;;;5.65;3.38;;;11.20;80.40;;;;;;5072609;28;20485;-71
2021/10/13 07:04:46;;;;;;;5.25;3.45;;;11.30;80.10;;;;;;5071798;28;20044;-70
2021/10/13 07:07:11;;;;;;;4.55;3.33;;;11.30;80.20;;;;;;5054407;28;20029;-70
2021/10/13 07:09:37;;;;;;;7.75;3.58;;;11.50;80.50;;;;;;5072233;28;20100;-70
2021/10/13 07:12:03;;;;;;;5.85;3.55;;;11.50;80.00;;;;;;5070805;28;20020;-70
2021/10/13 07:14:28;;;;;;;7.78;3.83;;;11.60;80.50;;;;;;5072151;28;20044;-70
2021/10/13 07:16:54;;;;;;;8.18;3.83;;;11.80;80.70;;;;;;5072459;28;20032;-70
2021/10/13 07:19:20;;;;;;;5.65;3.20;;;12.00;80.20;;;;;;5072076;28;20024;-71
2021/10/13 07:21:45;;;;;;;6.10;3.42;;;12.20;80.50;;;;;;5072258;28;20067;-70
2021/10/13 07:24:11;;;;;;;6.88;3.58;;;12.40;79.90;;;;;;5072803;28;20059;-70
2021/10/13 07:26:37;;;;;;;6.88;3.60;;;12.70;79.70;;;;;;5072200;28;20040;-71
2021/10/13 07:29:03;;;;;;;7.68;3.40;;;12.80;78.40;;;;;;5072190;28;20115;-71
2021/10/13 07:31:29;;;;;;;10.07;4.00;;;12.90;78.40;;;;;;5072118;28;20029;-71
2021/10/13 07:33:55;;;;;;;7.18;4.45;;;13.10;78.20;;;;;;5071677;28;20039;-71
2021/10/13 07:36:22;;;;;;;7.95;3.83;;;13.30;78.00;;;;;;5072860;28;20020;-71
2021/10/13 07:38:47;;;;;;;14.40;6.07;;;13.30;76.80;;;;;;5071722;28;20047;-71
2021/10/13 07:41:14;;;;;;;8.82;4.93;;;13.40;77.40;;;;;;5072061;28;20509;-71
2021/10/13 07:43:40;;;;;;;6.18;4.22;;;13.60;77.60;;;;;;5071981;28;20031;-70
2021/10/13 07:46:06;;;;;;;8.15;4.22;;;13.80;78.20;;;;;;5071923;28;20032;-71
2021/10/13 07:48:32;;;;;;;7.57;3.92;;;14.00;76.90;;;;;;5071800;28;20043;-71
2021/10/13 07:50:58;;;;;;;7.78;3.70;;;14.30;76.40;;;;;;5072392;28;20052;-71
2021/10/13 07:53:26;;;;;;;6.93;4.03;;;14.50;75.60;;;;;;5071734;28;20506;-70
2021/10/13 07:55:51;;;;;;;6.80;3.90;;;14.80;76.10;;;;;;5071787;28;20025;-71
2021/10/13 07:58:17;;;;;;;6.13;3.63;;;15.00;74.80;;;;;;5071348;28;20385;-70
2021/10/13 08:00:43;;;;;;;6.63;3.45;;;15.30;74.90;;;;;;5071344;28;20036;-71
2021/10/13 08:03:08;;;;;;;8.88;3.72;;;15.50;74.30;;;;;;5072012;28;20016;-71
2021/10/13 08:05:34;;;;;;;6.93;3.50;;;15.90;74.60;;;;;;5071711;28;20028;-70
2021/10/13 08:07:59;;;;;;;5.95;3.72;;;16.20;73.60;;;;;;5071601;28;20102;-71
2021/10/13 08:10:25;;;;;;;4.93;3.35;;;16.30;72.20;;;;;;5071673;28;20428;-72
2021/10/13 08:12:51;;;;;;;7.07;3.55;;;16.50;72.50;;;;;;5055594;28;20070;-71
2021/10/13 08:15:16;;;;;;;5.55;2.95;;;16.70;71.60;;;;;;5072238;28;20381;-71
2021/10/13 08:17:43;;;;;;;6.40;3.10;;;16.80;71.30;;;;;;5071144;28;20056;-71
2021/10/13 08:20:10;;;;;;;7.22;3.53;;;17.00;70.80;;;;;;5071421;28;20027;-71
2021/10/13 08:22:38;;;;;;;5.72;3.20;;;17.30;70.30;;;;;;5071474;28;20043;-71
2021/10/13 08:25:05;;;;;;;6.38;3.63;;;17.40;70.00;;;;;;5071687;28;20039;-71
2021/10/13 08:27:30;;;;;;;7.88;3.40;;;17.60;68.30;;;;;;5071587;28;20495;-71
2021/10/13 08:29:56;;;;;;;6.18;2.95;;;17.60;67.90;;;;;;5071886;28;20029;-71
2021/10/13 08:32:21;;;;;;;6.20;3.40;;;17.80;68.90;;;;;;5070912;28;20029;-71
2021/10/13 08:34:47;;;;;;;8.02;3.50;;;18.00;67.70;;;;;;5071244;28;20507;-71
2021/10/13 08:37:13;;;;;;;8.45;3.88;;;18.20;67.80;;;;;;5071521;28;20036;-71
2021/10/13 08:39:39;;;;;;;6.07;3.55;;;18.30;65.80;;;;;;5071081;28;20051;-71
2021/10/13 08:42:04;;;;;;;7.38;4.10;;;18.50;67.40;;;;;;5071867;28;20082;-71
2021/10/13 08:44:31;;;;;;;7.32;3.80;;;18.60;65.50;;;;;;5071328;28;20408;-71
2021/10/13 08:46:57;;;;;;;7.20;3.53;;;18.70;64.80;;;;;;5070947;28;20063;-72
2021/10/13 08:49:23;;;;;;;7.93;3.50;;;18.70;64.10;;;;;;5054011;28;20493;-71
2021/10/13 08:51:49;;;;;;;9.73;4.15;;;18.90;65.00;;;;;;5071337;28;20077;-72
2021/10/13 08:54:17;;;;;;;5.00;3.70;;;19.10;64.30;;;;;;5071736;28;20111;-71
2021/10/13 08:56:44;;;;;;;5.47;3.85;;;19.20;63.60;;;;;;5071144;28;20020;-71
2021/10/13 08:59:30;;;;;;;5.80;3.35;;;19.30;63.60;;;;;;5057200;28;20056;-71
2021/10/13 09:01:55;;;;;;;8.02;3.60;;;19.60;63.30;;;;;;5070915;28;20098;-72
2021/10/13 09:04:21;;;;;;;9.45;3.67;;;19.70;62.50;;;;;;5071211;28;20071;-71
2021/10/13 09:07:01;;;;;;;7.80;3.97;;;19.90;62.10;;;;;;5071255;28;20096;-71
2021/10/13 09:09:27;;;;;;;8.55;3.50;;;19.90;63.10;;;;;;5067882;28;20020;-71
2021/10/13 09:11:52;;;;;;;6.13;3.78;;;20.00;62.30;;;;;;5074831;28;20036;-72
2021/10/13 09:14:21;;;;;;;6.53;3.40;;;20.30;62.50;;;;;;5074375;28;20060;-72
2021/10/13 09:17:00;;;;;;;6.28;3.83;;;20.40;61.80;;;;;;5074614;28;20471;-72
2021/10/13 09:19:35;;;;;;;6.10;3.90;;;20.40;62.50;;;;;;5074641;28;20043;-71
2021/10/13 09:22:12;;;;;;;5.47;3.75;;;20.60;63.00;;;;;;5074755;28;20063;-71
2021/10/13 09:24:47;;;;;;;7.38;3.80;;;20.70;62.20;;;;;;5058352;28;20020;-71
2021/10/13 09:27:30;;;;;;;6.30;3.80;;;20.90;61.20;;;;;;5075295;28;20056;-72
2021/10/13 09:30:07;;;;;;;6.53;3.30;;;21.10;62.60;;;;;;5073631;28;20036;-71
2021/10/13 09:32:39;;;;;;;5.80;3.17;;;21.20;61.50;;;;;;5074266;28;20032;-71
2021/10/13 09:35:06;;;;;;;4.32;2.80;;;21.40;60.00;;;;;;5074327;28;20550;-71
2021/10/13 09:37:46;;;;;;;3.90;2.30;;;21.40;59.00;;;;;;5074370;28;20522;-71
2021/10/13 09:40:13;;;;;;;3.40;2.83;;;21.20;60.30;;;;;;5074004;28;20059;-71
2021/10/13 09:42:41;;;;;;;4.45;2.58;;;21.30;59.90;;;;;;5074069;28;20029;-71
2021/10/13 09:45:11;;;;;;;4.32;2.50;;;21.50;60.00;;;;;;5074702;28;20025;-71
2021/10/13 09:47:38;;;;;;;3.25;2.55;;;21.60;58.80;;;;;;5074139;28;20032;-71
2021/10/13 09:50:09;;;;;;;3.15;2.42;;;21.30;57.60;;;;;;5073944;28;20039;-71
2021/10/13 09:52:35;;;;;;;4.30;2.60;;;21.00;58.60;;;;;;5058381;28;20412;-71
2021/10/13 09:55:08;;;;;;;4.93;2.47;;;20.90;59.10;;;;;;5074211;28;20500;-71
2021/10/13 09:57:46;;;;;;;4.60;2.50;;;21.10;60.00;;;;;;5073810;28;20028;-71
2021/10/13 10:00:14;;;;;;;4.65;2.42;;;21.60;61.80;;;;;;5073350;28;20021;-71
2021/10/13 10:02:45;;;;;;;4.40;3.00;;;22.10;58.80;;;;;;5073711;28;20138;-71
2021/10/13 10:05:17;;;;;;;4.60;2.70;;;22.00;57.60;;;;;;5073953;28;20378;-71
2021/10/13 10:07:58;;;;;;;3.45;2.53;;;21.80;57.20;;;;;;5073699;28;20125;-71
2021/10/13 10:10:24;;;;;;;5.72;2.40;;;21.80;58.60;;;;;;5073901;28;20090;-71
2021/10/13 10:13:01;;;;;;;3.80;2.10;;;22.10;57.40;;;;;;5073509;28;20807;-71
2021/10/13 10:15:48;;;;;;;4.22;2.20;;;22.10;58.80;;;;;;5070706;28;20017;-71
2021/10/13 10:18:32;;;;;;;3.90;1.98;;;21.90;58.00;;;;;;5074557;28;20032;-72
2021/10/13 10:21:16;;;;;;;4.68;1.33;;;21.60;58.50;;;;;;5073430;28;20051;-71
2021/10/13 10:23:42;;;;;;;4.07;1.30;;;21.20;58.30;;;;;;5059409;28;20048;-71
2021/10/13 10:26:29;;;;;;;2.88;1.17;;;21.00;59.00;;;;;;5073331;28;20036;-71
2021/10/13 10:28:57;;;;;;;2.42;1.20;;;20.70;59.00;;;;;;5073318;28;20028;-70
2021/10/13 10:31:28;;;;;;;3.42;1.30;;;20.60;59.20;;;;;;5073405;28;20036;-75
2021/10/13 10:34:03;;;;;;;2.08;1.10;;;20.50;60.00;;;;;;5078073;28;20035;-72
2021/10/13 10:36:29;;;;;;;2.47;1.10;;;20.50;60.30;;;;;;5079953;28;20033;-72
2021/10/13 10:38:54;;;;;;;3.92;1.25;;;20.50;60.30;;;;;;5072480;28;20067;-72
2021/10/13 10:41:20;;;;;;;2.30;1.13;;;20.70;60.40;;;;;;5073476;28;20052;-72
2021/10/13 10:43:46;;;;;;;2.42;1.10;;;21.30;59.80;;;;;;5079299;28;20032;-72
2021/10/13 10:46:12;;;;;;;1.98;1.30;;;21.70;60.30;;;;;;5073258;28;20504;-64
2021/10/13 10:48:47;;;;;;;3.47;1.58;;;22.20;57.10;;;;;;5075972;28;20108;-64
2021/10/13 10:51:14;;;;;;;2.78;1.45;;;22.70;57.30;;;;;;5075320;28;20057;-64
2021/10/13 10:53:42;;;;;;;2.30;1.00;;;23.40;54.60;;;;;;5063488;28;20033;-65
2021/10/13 10:56:27;;;;;;;2.05;0.98;;;23.30;51.30;;;;;;5066487;28;20024;-66
2021/10/13 10:58:59;;;;;;;2.90;1.00;;;23.20;54.20;;;;;;5071605;28;20020;-64
2021/10/13 11:01:25;;;;;;;2.05;0.90;;;23.00;51.30;;;;;;5054644;28;20020;-72
2021/10/13 11:03:51;;;;;;;1.25;0.90;;;22.60;52.30;;;;;;5078790;28;20032;-81
2021/10/13 11:06:18;;;;;;;4.05;1.08;;;22.50;52.90;;;;;;5076574;28;20031;-85
2021/10/13 11:08:50;;;;;;;1.42;1.00;;;22.00;50.70;;;;;;5073525;28;20029;-84
2021/10/13 11:11:16;;;;;;;1.92;1.08;;;21.30;52.90;;;;;;5075453;28;20024;-76
2021/10/13 11:13:54;;;;;;;2.22;0.98;;;20.90;54.20;;;;;;5070385;28;20040;-71
2021/10/13 11:16:20;;;;;;;1.67;0.80;;;21.10;56.60;;;;;;5071029;28;20431;-79
2021/10/13 11:18:46;;;;;;;3.40;2.38;;;21.40;55.70;;;;;;5070479;28;20036;-76
2021/10/13 11:21:11;;;;;;;6.05;3.22;;;21.50;57.10;;;;;;5080843;28;20500;-78
2021/10/13 11:23:37;;;;;;;3.80;2.78;;;21.40;57.40;;;;;;5076346;28;20028;-78
2021/10/13 11:26:03;;;;;;;5.00;3.10;;;21.30;57.60;;;;;;5070652;28;20033;-72
2021/10/13 11:28:36;;;;;;;4.95;2.55;;;21.00;57.70;;;;;;5078130;28;20040;-73
2021/10/13 11:31:04;;;;;;;3.35;2.50;;;20.80;58.10;;;;;;5073965;28;20052;-72
2021/10/13 11:33:30;;;;;;;4.43;3.15;;;20.80;58.80;;;;;;5054726;28;20559;-71
2021/10/13 11:36:14;;;;;;;5.88;2.38;;;20.90;59.80;;;;;;5071139;28;20028;-71
2021/10/13 11:38:41;;;;;;;3.22;2.20;;;21.30;60.60;;;;;;5070912;28;20111;-73
2021/10/13 11:41:12;;;;;;;3.15;1.90;;;21.90;59.00;;;;;;5071855;28;20505;-72
2021/10/13 11:43:39;;;;;;;3.00;1.88;;;21.80;56.30;;;;;;5053452;28;20393;-72
2021/10/13 11:46:05;;;;;;;3.60;2.20;;;21.70;56.60;;;;;;5071548;28;20036;-75
2021/10/13 11:48:33;;;;;;;2.75;2.20;;;21.90;57.80;;;;;;5071265;28;20027;-75
2021/10/13 11:51:10;;;;;;;2.75;2.00;;;22.40;56.40;;;;;;5071935;28;20025;-75
2021/10/13 11:53:36;;;;;;;3.42;1.88;;;22.40;54.80;;;;;;5061481;28;20102;-75
2021/10/13 11:56:12;;;;;;;2.38;1.65;;;22.20;53.90;;;;;;5064482;28;20516;-75
2021/10/13 11:58:39;;;;;;;2.75;1.80;;;21.70;54.10;;;;;;5068237;28;20485;-75
2021/10/13 12:01:04;;;;;;;3.50;1.70;;;21.30;54.40;;;;;;5070125;28;20048;-74
2021/10/13 12:03:35;;;;;;;2.83;1.85;;;21.10;54.70;;;;;;5069915;28;20452;-74
2021/10/13 12:06:02;;;;;;;3.15;1.50;;;21.20;56.80;;;;;;5070282;28;20024;-76
2021/10/13 12:08:36;;;;;;;2.58;1.25;;;21.70;56.00;;;;;;5069505;28;20515;-74
2021/10/13 12:11:07;;;;;;;3.38;1.38;;;22.20;54.30;;;;;;5073069;28;20108;-75
2021/10/13 12:13:36;;;;;;;4.23;1.20;;;22.90;54.30;;;;;;5068182;28;20033;-74
2021/10/13 12:16:05;;;;;;;2.70;1.30;;;23.10;51.10;;;;;;5068186;28;20127;-74
2021/10/13 12:18:58;;;;;;;2.67;1.38;;;23.10;50.90;;;;;;5069769;28;20108;-74
2021/10/13 12:21:29;;;;;;;2.80;1.08;;;23.20;52.10;;;;;;5067491;28;20028;-74
2021/10/13 12:24:02;;;;;;;2.05;1.00;;;23.40;50.20;;;;;;5069884;28;20366;-75
2021/10/13 12:26:30;;;;;;;1.85;0.90;;;23.10;49.80;;;;;;5066356;28;20033;-77
2021/10/13 12:28:57;;;;;;;1.40;1.00;;;22.60;50.40;;;;;;5069874;28;20074;-76
2021/10/13 12:31:29;;;;;;;2.83;1.15;;;22.10;50.20;;;;;;5067560;28;20393;-75
2021/10/13 12:34:06;;;;;;;3.05;0.95;;;21.70;52.00;;;;;;5068960;28;20048;-75
2021/10/13 12:36:41;;;;;;;1.92;1.27;;;21.30;52.90;;;;;;5068811;28;20028;-76
2021/10/13 12:39:14;;;;;;;2.45;1.20;;;20.90;53.50;;;;;;5068821;28;20117;-76
2021/10/13 12:41:44;;;;;;;2.03;1.00;;;22.90;62.30;;;;;;5070236;28;20024;-78
2021/10/13 12:44:15;;;;;;;2.08;1.20;;;27.00;54.10;;;;;;5070007;28;20040;-67
2021/10/13 12:46:52;;;;;;;1.60;0.80;;;29.90;46.30;;;;;;5060021;28;20030;-71
2021/10/13 12:49:19;;;;;;;2.35;0.98;;;31.50;41.10;;;;;;5069784;28;20487;-70
2021/10/13 12:51:59;;;;;;;2.53;1.10;;;30.80;32.00;;;;;;5070815;28;20040;-74